sensor_id;sensor_type;location;lat;lon;timestamp;P1;durP1;ratioP1;P2;durP2;ratioP2
77322;SDS011;66384;51.052;9.850;2023-07-16T00:02:15;4.20;;;2.60;;
77322;SDS011;66384;51.052;9.850;2023-07-16T00:04:47;4.20;;;3.00;;
77322;SDS011;66384;51.052;9.850;2023-07-16T00:07:18;3.90;;;3.10;;
77322;SDS011;66384;51.052;9.850;2023-07-16T00:09:50;3.90;;;3.20;;
77322;SDS011;66384;51.052;9.850;2023-07-16T00:12:21;5.40;;;2.80;;
77322;SDS011;66384;51.052;9.850;2023-07-16T00:14:53;4.40;;;2.90;;
77322;SDS011;66384;51.052;9.850;2023-07-16T00:17:25;3.30;;;3.00;;
77322;SDS011;66384;51.052;9.850;2023-07-16T00:19:57;3.20;;;2.60;;
77322;SDS011;66384;51.052;9.850;2023-07-16T00:22:28;3.00;;;2.70;;
77322;SDS011;66384;51.052;9.850;2023-07-16T00:25:00;4.70;;;2.70;;
77322;SDS011;66384;51.052;9.850;2023-07-16T00:27:31;3.50;;;2.90;;
77322;SDS011;66384;51.052;9.850;2023-07-16T00:30:04;7.80;;;3.20;;
77322;SDS011;66384;51.052;9.850;2023-07-16T00:32:37;4.50;;;3.30;;
77322;SDS011;66384;51.052;9.850;2023-07-16T00:35:09;3.90;;;3.20;;
77322;SDS011;66384;51.052;9.850;2023-07-16T00:37:41;3.20;;;2.90;;
77322;SDS011;66384;51.052;9.850;2023-07-16T00:40:13;5.60;;;2.90;;
77322;SDS011;66384;51.052;9.850;2023-07-16T00:42:45;4.40;;;3.50;;
77322;SDS011;66384;51.052;9.850;2023-07-16T00:45:17;4.60;;;3.20;;
77322;SDS011;66384;51.052;9.850;2023-07-16T00:47:48;5.50;;;3.20;;
77322;SDS011;66384;51.052;9.850;2023-07-16T00:50:20;5.00;;;2.90;;
77322;SDS011;66384;51.052;9.850;2023-07-16T00:52:52;4.00;;;2.90;;
77322;SDS011;66384;51.052;9.850;2023-07-16T00:55:23;4.90;;;3.60;;
77322;SDS011;66384;51.052;9.850;2023-07-16T00:57:55;4.20;;;3.00;;
77322;SDS011;66384;51.052;9.850;2023-07-16T01:00:31;3.70;;;2.70;;
77322;SDS011;66384;51.052;9.850;2023-07-16T01:03:04;4.10;;;3.30;;
77322;SDS011;66384;51.052;9.850;2023-07-16T01:05:38;4.80;;;3.10;;
77322;SDS011;66384;51.052;9.850;2023-07-16T01:08:17;4.50;;;3.10;;
77322;SDS011;66384;51.052;9.850;2023-07-16T01:10:56;5.70;;;3.30;;
77322;SDS011;66384;51.052;9.850;2023-07-16T01:13:33;3.50;;;2.90;;
77322;SDS011;66384;51.052;9.850;2023-07-16T01:16:06;4.20;;;3.20;;
77322;SDS011;66384;51.052;9.850;2023-07-16T01:18:47;4.30;;;3.30;;
77322;SDS011;66384;51.052;9.850;2023-07-16T01:21:20;4.20;;;3.10;;
77322;SDS011;66384;51.052;9.850;2023-07-16T01:24:10;4.00;;;3.20;;
77322;SDS011;66384;51.052;9.850;2023-07-16T01:27:08;3.80;;;2.70;;
77322;SDS011;66384;51.052;9.850;2023-07-16T01:29:57;3.90;;;2.80;;
77322;SDS011;66384;51.052;9.850;2023-07-16T01:32:31;3.60;;;2.90;;
77322;SDS011;66384;51.052;9.850;2023-07-16T01:35:04;5.70;;;3.30;;
77322;SDS011;66384;51.052;9.850;2023-07-16T01:37:37;3.90;;;3.20;;
77322;SDS011;66384;51.052;9.850;2023-07-16T01:40:10;4.60;;;3.50;;
77322;SDS011;66384;51.052;9.850;2023-07-16T01:42:42;7.50;;;3.50;;
77322;SDS011;66384;51.052;9.850;2023-07-16T01:45:14;5.50;;;2.70;;
77322;SDS011;66384;51.052;9.850;2023-07-16T01:47:48;4.10;;;3.20;;
77322;SDS011;66384;51.052;9.850;2023-07-16T01:50:29;3.60;;;2.70;;
77322;SDS011;66384;51.052;9.850;2023-07-16T01:53:00;4.50;;;2.90;;
77322;SDS011;66384;51.052;9.850;2023-07-16T01:55:32;3.60;;;3.00;;
77322;SDS011;66384;51.052;9.850;2023-07-16T01:58:03;4.60;;;2.80;;
77322;SDS011;66384;51.052;9.850;2023-07-16T02:00:36;4.10;;;2.70;;
77322;SDS011;66384;51.052;9.850;2023-07-16T02:03:09;8.60;;;2.70;;
77322;SDS011;66384;51.052;9.850;2023-07-16T02:05:41;3.00;;;2.30;;
77322;SDS011;66384;51.052;9.850;2023-07-16T02:08:13;3.40;;;2.60;;
77322;SDS011;66384;51.052;9.850;2023-07-16T02:10:44;4.40;;;2.70;;
77322;SDS011;66384;51.052;9.850;2023-07-16T02:13:18;2.80;;;1.90;;
77322;SDS011;66384;51.052;9.850;2023-07-16T02:15:49;3.00;;;2.50;;
77322;SDS011;66384;51.052;9.850;2023-07-16T02:18:21;3.00;;;2.30;;
77322;SDS011;66384;51.052;9.850;2023-07-16T02:20:52;3.20;;;2.10;;
77322;SDS011;66384;51.052;9.850;2023-07-16T02:23:24;4.40;;;2.10;;
77322;SDS011;66384;51.052;9.850;2023-07-16T02:25:55;2.60;;;2.10;;
77322;SDS011;66384;51.052;9.850;2023-07-16T02:28:27;4.00;;;2.50;;
77322;SDS011;66384;51.052;9.850;2023-07-16T02:30:59;3.30;;;2.30;;
77322;SDS011;66384;51.052;9.850;2023-07-16T02:33:31;3.40;;;2.30;;
77322;SDS011;66384;51.052;9.850;2023-07-16T02:36:03;4.20;;;2.80;;
77322;SDS011;66384;51.052;9.850;2023-07-16T02:38:35;3.80;;;2.10;;
77322;SDS011;66384;51.052;9.850;2023-07-16T02:41:06;4.00;;;3.10;;
77322;SDS011;66384;51.052;9.850;2023-07-16T02:43:38;3.50;;;1.80;;
77322;SDS011;66384;51.052;9.850;2023-07-16T02:46:09;3.20;;;2.20;;
77322;SDS011;66384;51.052;9.850;2023-07-16T02:48:41;5.70;;;1.60;;
77322;SDS011;66384;51.052;9.850;2023-07-16T02:51:12;2.70;;;1.60;;
77322;SDS011;66384;51.052;9.850;2023-07-16T02:53:44;2.40;;;2.00;;
77322;SDS011;66384;51.052;9.850;2023-07-16T02:56:16;3.90;;;2.10;;
77322;SDS011;66384;51.052;9.850;2023-07-16T02:58:48;4.00;;;2.20;;
77322;SDS011;66384;51.052;9.850;2023-07-16T03:01:19;2.40;;;1.80;;
77322;SDS011;66384;51.052;9.850;2023-07-16T03:03:53;3.90;;;1.80;;
77322;SDS011;66384;51.052;9.850;2023-07-16T03:06:24;2.50;;;1.80;;
77322;SDS011;66384;51.052;9.850;2023-07-16T03:08:56;2.90;;;1.80;;
77322;SDS011;66384;51.052;9.850;2023-07-16T03:11:27;4.00;;;2.10;;
77322;SDS011;66384;51.052;9.850;2023-07-16T03:13:59;2.60;;;1.70;;
77322;SDS011;66384;51.052;9.850;2023-07-16T03:16:30;4.00;;;1.90;;
77322;SDS011;66384;51.052;9.850;2023-07-16T03:19:02;3.70;;;1.90;;
77322;SDS011;66384;51.052;9.850;2023-07-16T03:21:34;4.30;;;2.00;;
77322;SDS011;66384;51.052;9.850;2023-07-16T03:24:06;3.20;;;1.70;;
77322;SDS011;66384;51.052;9.850;2023-07-16T03:26:37;4.00;;;1.60;;
77322;SDS011;66384;51.052;9.850;2023-07-16T03:29:09;4.50;;;2.00;;
77322;SDS011;66384;51.052;9.850;2023-07-16T03:31:40;2.50;;;1.80;;
77322;SDS011;66384;51.052;9.850;2023-07-16T03:34:12;3.30;;;1.90;;
77322;SDS011;66384;51.052;9.850;2023-07-16T03:36:44;2.60;;;1.70;;
77322;SDS011;66384;51.052;9.850;2023-07-16T03:39:15;2.60;;;1.60;;
77322;SDS011;66384;51.052;9.850;2023-07-16T03:41:47;3.50;;;1.60;;
77322;SDS011;66384;51.052;9.850;2023-07-16T03:44:18;3.50;;;1.90;;
77322;SDS011;66384;51.052;9.850;2023-07-16T03:46:50;3.40;;;1.90;;
77322;SDS011;66384;51.052;9.850;2023-07-16T03:49:21;4.30;;;1.90;;
77322;SDS011;66384;51.052;9.850;2023-07-16T03:51:53;3.90;;;1.80;;
77322;SDS011;66384;51.052;9.850;2023-07-16T03:54:24;3.30;;;1.80;;
77322;SDS011;66384;51.052;9.850;2023-07-16T03:56:56;4.40;;;1.80;;
77322;SDS011;66384;51.052;9.850;2023-07-16T03:59:27;2.20;;;1.70;;
77322;SDS011;66384;51.052;9.850;2023-07-16T04:01:59;3.60;;;1.70;;
77322;SDS011;66384;51.052;9.850;2023-07-16T04:04:31;3.60;;;1.80;;
77322;SDS011;66384;51.052;9.850;2023-07-16T04:07:03;3.10;;;1.90;;
77322;SDS011;66384;51.052;9.850;2023-07-16T04:09:36;3.10;;;2.00;;
77322;SDS011;66384;51.052;9.850;2023-07-16T04:12:08;2.60;;;1.70;;
77322;SDS011;66384;51.052;9.850;2023-07-16T04:14:40;5.20;;;1.60;;
77322;SDS011;66384;51.052;9.850;2023-07-16T04:17:11;3.10;;;1.70;;
77322;SDS011;66384;51.052;9.850;2023-07-16T04:19:43;4.40;;;1.80;;
77322;SDS011;66384;51.052;9.850;2023-07-16T04:22:14;6.20;;;1.80;;
77322;SDS011;66384;51.052;9.850;2023-07-16T04:24:46;3.90;;;1.70;;
77322;SDS011;66384;51.052;9.850;2023-07-16T04:27:18;4.30;;;1.80;;
77322;SDS011;66384;51.052;9.850;2023-07-16T04:29:49;2.60;;;1.60;;
77322;SDS011;66384;51.052;9.850;2023-07-16T04:32:21;3.10;;;1.60;;
77322;SDS011;66384;51.052;9.850;2023-07-16T04:34:53;3.50;;;1.80;;
77322;SDS011;66384;51.052;9.850;2023-07-16T04:37:24;5.90;;;2.00;;
77322;SDS011;66384;51.052;9.850;2023-07-16T04:39:56;2.90;;;1.80;;
77322;SDS011;66384;51.052;9.850;2023-07-16T04:42:27;2.30;;;1.70;;
77322;SDS011;66384;51.052;9.850;2023-07-16T04:44:59;4.60;;;1.90;;
77322;SDS011;66384;51.052;9.850;2023-07-16T04:47:31;2.30;;;1.50;;
77322;SDS011;66384;51.052;9.850;2023-07-16T04:50:05;2.70;;;1.50;;
77322;SDS011;66384;51.052;9.850;2023-07-16T04:52:37;2.50;;;1.50;;
77322;SDS011;66384;51.052;9.850;2023-07-16T04:55:09;4.60;;;2.20;;
77322;SDS011;66384;51.052;9.850;2023-07-16T04:57:41;3.40;;;1.90;;
77322;SDS011;66384;51.052;9.850;2023-07-16T05:00:13;6.10;;;1.90;;
77322;SDS011;66384;51.052;9.850;2023-07-16T05:02:45;3.00;;;2.00;;
77322;SDS011;66384;51.052;9.850;2023-07-16T05:05:17;3.10;;;2.10;;
77322;SDS011;66384;51.052;9.850;2023-07-16T05:07:48;4.80;;;1.70;;
77322;SDS011;66384;51.052;9.850;2023-07-16T05:10:20;4.80;;;2.40;;
77322;SDS011;66384;51.052;9.850;2023-07-16T05:12:51;4.60;;;1.90;;
77322;SDS011;66384;51.052;9.850;2023-07-16T05:15:23;3.00;;;1.90;;
77322;SDS011;66384;51.052;9.850;2023-07-16T05:17:54;4.60;;;1.80;;
77322;SDS011;66384;51.052;9.850;2023-07-16T05:20:27;4.50;;;1.90;;
77322;SDS011;66384;51.052;9.850;2023-07-16T05:22:59;3.40;;;1.70;;
77322;SDS011;66384;51.052;9.850;2023-07-16T05:25:31;3.50;;;1.60;;
77322;SDS011;66384;51.052;9.850;2023-07-16T05:28:03;3.90;;;2.10;;
77322;SDS011;66384;51.052;9.850;2023-07-16T05:30:35;4.10;;;2.20;;
77322;SDS011;66384;51.052;9.850;2023-07-16T05:33:06;1.60;;;1.30;;
77322;SDS011;66384;51.052;9.850;2023-07-16T05:35:39;5.60;;;1.70;;
77322;SDS011;66384;51.052;9.850;2023-07-16T05:38:10;3.20;;;1.80;;
77322;SDS011;66384;51.052;9.850;2023-07-16T05:40:42;3.10;;;1.70;;
77322;SDS011;66384;51.052;9.850;2023-07-16T05:43:13;5.00;;;2.40;;
77322;SDS011;66384;51.052;9.850;2023-07-16T05:45:45;7.50;;;2.20;;
77322;SDS011;66384;51.052;9.850;2023-07-16T05:48:18;2.50;;;1.70;;
77322;SDS011;66384;51.052;9.850;2023-07-16T05:50:49;3.10;;;1.90;;
77322;SDS011;66384;51.052;9.850;2023-07-16T05:53:21;4.30;;;1.60;;
77322;SDS011;66384;51.052;9.850;2023-07-16T05:55:53;3.90;;;2.00;;
77322;SDS011;66384;51.052;9.850;2023-07-16T05:58:24;3.00;;;1.90;;
77322;SDS011;66384;51.052;9.850;2023-07-16T06:00:56;3.60;;;2.00;;
77322;SDS011;66384;51.052;9.850;2023-07-16T06:03:27;5.10;;;2.30;;
77322;SDS011;66384;51.052;9.850;2023-07-16T06:05:59;3.70;;;2.20;;
77322;SDS011;66384;51.052;9.850;2023-07-16T06:08:31;5.20;;;1.80;;
77322;SDS011;66384;51.052;9.850;2023-07-16T06:11:02;2.60;;;1.60;;
77322;SDS011;66384;51.052;9.850;2023-07-16T06:13:34;4.20;;;1.90;;
77322;SDS011;66384;51.052;9.850;2023-07-16T06:16:06;7.50;;;2.10;;
77322;SDS011;66384;51.052;9.850;2023-07-16T06:18:37;4.00;;;2.20;;
77322;SDS011;66384;51.052;9.850;2023-07-16T06:21:09;2.90;;;1.90;;
77322;SDS011;66384;51.052;9.850;2023-07-16T06:23:41;4.40;;;2.10;;
77322;SDS011;66384;51.052;9.850;2023-07-16T06:26:13;2.70;;;1.90;;
77322;SDS011;66384;51.052;9.850;2023-07-16T06:28:45;5.00;;;2.10;;
77322;SDS011;66384;51.052;9.850;2023-07-16T06:31:18;3.30;;;1.90;;
77322;SDS011;66384;51.052;9.850;2023-07-16T06:33:51;3.20;;;1.50;;
77322;SDS011;66384;51.052;9.850;2023-07-16T06:36:23;4.80;;;1.90;;
77322;SDS011;66384;51.052;9.850;2023-07-16T06:38:54;4.60;;;2.10;;
77322;SDS011;66384;51.052;9.850;2023-07-16T06:41:26;3.40;;;2.20;;
77322;SDS011;66384;51.052;9.850;2023-07-16T06:43:59;4.50;;;2.10;;
77322;SDS011;66384;51.052;9.850;2023-07-16T06:46:30;4.40;;;2.00;;
77322;SDS011;66384;51.052;9.850;2023-07-16T06:49:02;4.90;;;2.30;;
77322;SDS011;66384;51.052;9.850;2023-07-16T06:51:35;5.20;;;2.40;;
77322;SDS011;66384;51.052;9.850;2023-07-16T06:54:09;2.90;;;1.70;;
77322;SDS011;66384;51.052;9.850;2023-07-16T06:56:41;4.40;;;1.90;;
77322;SDS011;66384;51.052;9.850;2023-07-16T06:59:12;4.10;;;2.30;;
77322;SDS011;66384;51.052;9.850;2023-07-16T07:01:44;9.20;;;2.70;;
77322;SDS011;66384;51.052;9.850;2023-07-16T07:04:15;4.30;;;1.90;;
77322;SDS011;66384;51.052;9.850;2023-07-16T07:06:47;8.50;;;2.00;;
77322;SDS011;66384;51.052;9.850;2023-07-16T07:09:19;5.60;;;2.40;;
77322;SDS011;66384;51.052;9.850;2023-07-16T07:11:51;4.50;;;2.50;;
77322;SDS011;66384;51.052;9.850;2023-07-16T07:14:22;7.30;;;2.50;;
77322;SDS011;66384;51.052;9.850;2023-07-16T07:16:54;5.80;;;2.00;;
77322;SDS011;66384;51.052;9.850;2023-07-16T07:19:25;5.80;;;2.10;;
77322;SDS011;66384;51.052;9.850;2023-07-16T07:21:57;4.40;;;2.30;;
77322;SDS011;66384;51.052;9.850;2023-07-16T07:24:28;3.80;;;1.80;;
77322;SDS011;66384;51.052;9.850;2023-07-16T07:27:00;5.20;;;2.60;;
77322;SDS011;66384;51.052;9.850;2023-07-16T07:29:32;6.00;;;2.00;;
77322;SDS011;66384;51.052;9.850;2023-07-16T07:32:04;5.80;;;2.30;;
77322;SDS011;66384;51.052;9.850;2023-07-16T07:34:36;2.50;;;2.00;;
77322;SDS011;66384;51.052;9.850;2023-07-16T07:37:09;3.40;;;1.90;;
77322;SDS011;66384;51.052;9.850;2023-07-16T07:39:41;5.50;;;1.90;;
77322;SDS011;66384;51.052;9.850;2023-07-16T07:42:16;3.90;;;1.90;;
77322;SDS011;66384;51.052;9.850;2023-07-16T07:44:50;3.40;;;1.90;;
77322;SDS011;66384;51.052;9.850;2023-07-16T07:47:21;5.80;;;2.10;;
77322;SDS011;66384;51.052;9.850;2023-07-16T07:49:53;9.00;;;2.00;;
77322;SDS011;66384;51.052;9.850;2023-07-16T07:52:26;7.50;;;2.00;;
77322;SDS011;66384;51.052;9.850;2023-07-16T07:54:58;4.10;;;1.90;;
77322;SDS011;66384;51.052;9.850;2023-07-16T07:57:29;4.90;;;1.90;;
77322;SDS011;66384;51.052;9.850;2023-07-16T08:00:01;4.90;;;2.10;;
77322;SDS011;66384;51.052;9.850;2023-07-16T08:02:33;4.50;;;2.20;;
77322;SDS011;66384;51.052;9.850;2023-07-16T08:05:06;6.10;;;2.40;;
77322;SDS011;66384;51.052;9.850;2023-07-16T08:07:38;4.80;;;2.00;;
77322;SDS011;66384;51.052;9.850;2023-07-16T08:10:10;3.80;;;2.30;;
77322;SDS011;66384;51.052;9.850;2023-07-16T08:12:42;5.60;;;2.20;;
77322;SDS011;66384;51.052;9.850;2023-07-16T08:15:14;3.10;;;1.80;;
77322;SDS011;66384;51.052;9.850;2023-07-16T08:17:45;2.90;;;2.10;;
77322;SDS011;66384;51.052;9.850;2023-07-16T08:20:17;4.40;;;2.00;;
77322;SDS011;66384;51.052;9.850;2023-07-16T08:22:49;5.20;;;2.10;;
77322;SDS011;66384;51.052;9.850;2023-07-16T08:25:21;4.00;;;2.10;;
77322;SDS011;66384;51.052;9.850;2023-07-16T08:27:53;3.40;;;1.90;;
77322;SDS011;66384;51.052;9.850;2023-07-16T08:30:24;4.50;;;2.10;;
77322;SDS011;66384;51.052;9.850;2023-07-16T08:32:56;3.20;;;1.90;;
77322;SDS011;66384;51.052;9.850;2023-07-16T08:35:27;3.60;;;2.00;;
77322;SDS011;66384;51.052;9.850;2023-07-16T08:37:59;3.80;;;2.40;;
77322;SDS011;66384;51.052;9.850;2023-07-16T08:40:30;4.70;;;2.10;;
77322;SDS011;66384;51.052;9.850;2023-07-16T08:43:03;4.90;;;2.20;;
77322;SDS011;66384;51.052;9.850;2023-07-16T08:45:38;4.90;;;2.00;;
77322;SDS011;66384;51.052;9.850;2023-07-16T08:48:11;2.70;;;1.80;;
77322;SDS011;66384;51.052;9.850;2023-07-16T08:50:43;4.60;;;2.10;;
77322;SDS011;66384;51.052;9.850;2023-07-16T08:53:17;3.10;;;1.80;;
77322;SDS011;66384;51.052;9.850;2023-07-16T08:55:49;5.90;;;2.30;;
77322;SDS011;66384;51.052;9.850;2023-07-16T08:58:24;3.40;;;2.10;;
77322;SDS011;66384;51.052;9.850;2023-07-16T09:00:57;5.60;;;3.10;;
77322;SDS011;66384;51.052;9.850;2023-07-16T09:03:30;7.20;;;2.10;;
77322;SDS011;66384;51.052;9.850;2023-07-16T09:06:03;4.30;;;2.70;;
77322;SDS011;66384;51.052;9.850;2023-07-16T09:08:35;4.90;;;2.70;;
77322;SDS011;66384;51.052;9.850;2023-07-16T09:11:10;5.90;;;2.00;;
77322;SDS011;66384;51.052;9.850;2023-07-16T09:13:45;7.30;;;2.50;;
77322;SDS011;66384;51.052;9.850;2023-07-16T09:16:16;4.00;;;2.20;;
77322;SDS011;66384;51.052;9.850;2023-07-16T09:18:50;6.60;;;2.40;;
77322;SDS011;66384;51.052;9.850;2023-07-16T09:21:21;5.40;;;2.30;;
77322;SDS011;66384;51.052;9.850;2023-07-16T09:23:56;4.10;;;2.00;;
77322;SDS011;66384;51.052;9.850;2023-07-16T09:26:27;4.80;;;2.60;;
77322;SDS011;66384;51.052;9.850;2023-07-16T09:28:59;4.80;;;3.10;;
77322;SDS011;66384;51.052;9.850;2023-07-16T09:31:30;4.90;;;3.00;;
77322;SDS011;66384;51.052;9.850;2023-07-16T09:34:02;4.50;;;2.70;;
77322;SDS011;66384;51.052;9.850;2023-07-16T09:36:33;5.70;;;2.10;;
77322;SDS011;66384;51.052;9.850;2023-07-16T09:39:05;4.10;;;2.20;;
77322;SDS011;66384;51.052;9.850;2023-07-16T09:41:37;4.20;;;2.40;;
77322;SDS011;66384;51.052;9.850;2023-07-16T09:44:10;4.30;;;2.50;;
77322;SDS011;66384;51.052;9.850;2023-07-16T09:46:43;5.00;;;2.40;;
77322;SDS011;66384;51.052;9.850;2023-07-16T09:49:15;4.20;;;2.50;;
77322;SDS011;66384;51.052;9.850;2023-07-16T09:51:47;6.10;;;2.50;;
77322;SDS011;66384;51.052;9.850;2023-07-16T09:54:21;4.60;;;2.30;;
77322;SDS011;66384;51.052;9.850;2023-07-16T09:56:55;2.90;;;2.30;;
77322;SDS011;66384;51.052;9.850;2023-07-16T09:59:30;4.10;;;2.60;;
77322;SDS011;66384;51.052;9.850;2023-07-16T10:02:04;5.00;;;2.70;;
77322;SDS011;66384;51.052;9.850;2023-07-16T10:04:40;3.10;;;2.00;;
77322;SDS011;66384;51.052;9.850;2023-07-16T10:07:19;4.00;;;2.50;;
77322;SDS011;66384;51.052;9.850;2023-07-16T10:09:52;4.10;;;2.50;;
77322;SDS011;66384;51.052;9.850;2023-07-16T10:12:25;3.90;;;2.10;;
77322;SDS011;66384;51.052;9.850;2023-07-16T10:14:57;6.30;;;2.50;;
77322;SDS011;66384;51.052;9.850;2023-07-16T10:17:31;3.70;;;2.50;;
77322;SDS011;66384;51.052;9.850;2023-07-16T10:20:05;6.50;;;2.40;;
77322;SDS011;66384;51.052;9.850;2023-07-16T10:22:39;4.60;;;2.50;;
77322;SDS011;66384;51.052;9.850;2023-07-16T10:25:21;6.60;;;2.60;;
77322;SDS011;66384;51.052;9.850;2023-07-16T10:27:55;3.90;;;2.30;;
77322;SDS011;66384;51.052;9.850;2023-07-16T10:30:27;6.40;;;3.00;;
77322;SDS011;66384;51.052;9.850;2023-07-16T10:33:02;4.70;;;2.50;;
77322;SDS011;66384;51.052;9.850;2023-07-16T10:35:42;5.60;;;2.40;;
77322;SDS011;66384;51.052;9.850;2023-07-16T10:38:15;4.10;;;2.80;;
77322;SDS011;66384;51.052;9.850;2023-07-16T10:40:46;5.20;;;2.90;;
77322;SDS011;66384;51.052;9.850;2023-07-16T10:43:18;5.10;;;2.50;;
77322;SDS011;66384;51.052;9.850;2023-07-16T10:45:51;4.30;;;2.70;;
77322;SDS011;66384;51.052;9.850;2023-07-16T10:48:25;5.40;;;2.80;;
77322;SDS011;66384;51.052;9.850;2023-07-16T10:50:57;4.70;;;2.70;;
77322;SDS011;66384;51.052;9.850;2023-07-16T10:53:28;5.80;;;3.50;;
77322;SDS011;66384;51.052;9.850;2023-07-16T10:56:00;3.70;;;2.10;;
77322;SDS011;66384;51.052;9.850;2023-07-16T10:58:32;3.90;;;2.50;;
77322;SDS011;66384;51.052;9.850;2023-07-16T11:01:07;3.50;;;2.50;;
77322;SDS011;66384;51.052;9.850;2023-07-16T11:03:39;5.90;;;2.50;;
77322;SDS011;66384;51.052;9.850;2023-07-16T11:06:11;5.20;;;3.60;;
77322;SDS011;66384;51.052;9.850;2023-07-16T11:08:45;5.00;;;2.70;;
77322;SDS011;66384;51.052;9.850;2023-07-16T11:11:16;6.00;;;2.70;;
77322;SDS011;66384;51.052;9.850;2023-07-16T11:13:59;5.10;;;2.40;;
77322;SDS011;66384;51.052;9.850;2023-07-16T11:16:34;4.80;;;2.40;;
77322;SDS011;66384;51.052;9.850;2023-07-16T11:19:06;4.20;;;2.40;;
77322;SDS011;66384;51.052;9.850;2023-07-16T11:21:38;3.70;;;2.50;;
77322;SDS011;66384;51.052;9.850;2023-07-16T11:24:12;4.30;;;2.40;;
77322;SDS011;66384;51.052;9.850;2023-07-16T11:26:50;5.30;;;2.50;;
77322;SDS011;66384;51.052;9.850;2023-07-16T11:29:22;5.90;;;2.70;;
77322;SDS011;66384;51.052;9.850;2023-07-16T11:31:54;4.50;;;2.90;;
77322;SDS011;66384;51.052;9.850;2023-07-16T11:34:25;5.90;;;2.60;;
77322;SDS011;66384;51.052;9.850;2023-07-16T11:37:06;11.50;;;2.90;;
77322;SDS011;66384;51.052;9.850;2023-07-16T11:39:39;4.70;;;2.50;;
77322;SDS011;66384;51.052;9.850;2023-07-16T11:42:10;8.60;;;3.70;;
77322;SDS011;66384;51.052;9.850;2023-07-16T11:44:42;4.60;;;2.50;;
77322;SDS011;66384;51.052;9.850;2023-07-16T11:47:18;6.00;;;2.80;;
77322;SDS011;66384;51.052;9.850;2023-07-16T11:49:50;7.40;;;2.90;;
77322;SDS011;66384;51.052;9.850;2023-07-16T11:52:22;3.70;;;2.30;;
77322;SDS011;66384;51.052;9.850;2023-07-16T11:54:56;3.90;;;2.70;;
77322;SDS011;66384;51.052;9.850;2023-07-16T11:57:29;4.80;;;2.70;;
77322;SDS011;66384;51.052;9.850;2023-07-16T12:00:01;4.80;;;2.90;;
77322;SDS011;66384;51.052;9.850;2023-07-16T12:02:34;5.50;;;2.80;;
77322;SDS011;66384;51.052;9.850;2023-07-16T12:05:06;3.60;;;2.70;;
77322;SDS011;66384;51.052;9.850;2023-07-16T12:07:41;4.30;;;2.60;;
77322;SDS011;66384;51.052;9.850;2023-07-16T12:10:13;3.60;;;3.00;;
77322;SDS011;66384;51.052;9.850;2023-07-16T12:12:44;6.90;;;2.70;;
77322;SDS011;66384;51.052;9.850;2023-07-16T12:15:16;6.50;;;2.80;;
77322;SDS011;66384;51.052;9.850;2023-07-16T12:17:47;5.50;;;2.50;;
77322;SDS011;66384;51.052;9.850;2023-07-16T12:20:19;5.50;;;2.60;;
77322;SDS011;66384;51.052;9.850;2023-07-16T12:22:51;6.40;;;3.40;;
77322;SDS011;66384;51.052;9.850;2023-07-16T12:25:22;3.50;;;2.20;;
77322;SDS011;66384;51.052;9.850;2023-07-16T12:27:54;6.30;;;2.60;;
77322;SDS011;66384;51.052;9.850;2023-07-16T12:30:27;5.50;;;3.40;;
77322;SDS011;66384;51.052;9.850;2023-07-16T12:32:58;7.10;;;3.30;;
77322;SDS011;66384;51.052;9.850;2023-07-16T12:35:33;3.90;;;2.80;;
77322;SDS011;66384;51.052;9.850;2023-07-16T12:38:04;4.10;;;3.10;;
77322;SDS011;66384;51.052;9.850;2023-07-16T12:40:36;4.80;;;2.60;;
77322;SDS011;66384;51.052;9.850;2023-07-16T12:43:09;4.60;;;2.80;;
77322;SDS011;66384;51.052;9.850;2023-07-16T12:45:41;5.90;;;3.10;;
77322;SDS011;66384;51.052;9.850;2023-07-16T12:48:12;4.90;;;2.70;;
77322;SDS011;66384;51.052;9.850;2023-07-16T12:50:44;6.80;;;3.10;;
77322;SDS011;66384;51.052;9.850;2023-07-16T12:53:16;5.40;;;3.40;;
77322;SDS011;66384;51.052;9.850;2023-07-16T12:55:47;4.30;;;2.60;;
77322;SDS011;66384;51.052;9.850;2023-07-16T12:58:19;3.70;;;2.70;;
77322;SDS011;66384;51.052;9.850;2023-07-16T13:00:50;3.60;;;2.70;;
77322;SDS011;66384;51.052;9.850;2023-07-16T13:03:22;3.90;;;2.80;;
77322;SDS011;66384;51.052;9.850;2023-07-16T13:05:53;4.30;;;2.70;;
77322;SDS011;66384;51.052;9.850;2023-07-16T13:08:25;7.60;;;3.10;;
77322;SDS011;66384;51.052;9.850;2023-07-16T13:10:56;4.60;;;2.90;;
77322;SDS011;66384;51.052;9.850;2023-07-16T13:13:28;5.60;;;2.60;;
77322;SDS011;66384;51.052;9.850;2023-07-16T13:16:00;3.20;;;2.50;;
77322;SDS011;66384;51.052;9.850;2023-07-16T13:18:31;5.80;;;2.80;;
77322;SDS011;66384;51.052;9.850;2023-07-16T13:21:03;5.00;;;2.90;;
77322;SDS011;66384;51.052;9.850;2023-07-16T13:23:34;4.60;;;3.30;;
77322;SDS011;66384;51.052;9.850;2023-07-16T13:26:06;3.60;;;2.40;;
77322;SDS011;66384;51.052;9.850;2023-07-16T13:28:37;3.50;;;2.70;;
77322;SDS011;66384;51.052;9.850;2023-07-16T13:31:09;7.40;;;3.10;;
77322;SDS011;66384;51.052;9.850;2023-07-16T13:33:41;5.10;;;3.20;;
77322;SDS011;66384;51.052;9.850;2023-07-16T13:36:12;4.40;;;3.00;;
77322;SDS011;66384;51.052;9.850;2023-07-16T13:38:44;5.90;;;3.50;;
77322;SDS011;66384;51.052;9.850;2023-07-16T13:41:16;4.80;;;2.80;;
77322;SDS011;66384;51.052;9.850;2023-07-16T13:43:47;6.10;;;2.90;;
77322;SDS011;66384;51.052;9.850;2023-07-16T13:46:19;4.40;;;2.80;;
77322;SDS011;66384;51.052;9.850;2023-07-16T13:48:50;4.60;;;2.70;;
77322;SDS011;66384;51.052;9.850;2023-07-16T13:51:27;5.60;;;4.30;;
77322;SDS011;66384;51.052;9.850;2023-07-16T13:53:58;4.60;;;3.10;;
77322;SDS011;66384;51.052;9.850;2023-07-16T13:56:30;5.00;;;3.20;;
77322;SDS011;66384;51.052;9.850;2023-07-16T13:59:01;4.60;;;2.70;;
77322;SDS011;66384;51.052;9.850;2023-07-16T14:01:37;7.60;;;4.50;;
77322;SDS011;66384;51.052;9.850;2023-07-16T14:04:13;5.40;;;3.90;;
77322;SDS011;66384;51.052;9.850;2023-07-16T14:06:44;10.60;;;3.90;;
77322;SDS011;66384;51.052;9.850;2023-07-16T14:09:16;5.10;;;3.70;;
77322;SDS011;66384;51.052;9.850;2023-07-16T14:11:48;5.00;;;3.00;;
77322;SDS011;66384;51.052;9.850;2023-07-16T14:14:20;6.60;;;3.70;;
77322;SDS011;66384;51.052;9.850;2023-07-16T14:16:52;4.40;;;3.10;;
77322;SDS011;66384;51.052;9.850;2023-07-16T14:19:25;7.40;;;3.30;;
77322;SDS011;66384;51.052;9.850;2023-07-16T14:21:58;4.50;;;2.90;;
77322;SDS011;66384;51.052;9.850;2023-07-16T14:24:29;7.80;;;2.90;;
77322;SDS011;66384;51.052;9.850;2023-07-16T14:27:01;4.30;;;2.60;;
77322;SDS011;66384;51.052;9.850;2023-07-16T14:29:35;6.40;;;3.70;;
77322;SDS011;66384;51.052;9.850;2023-07-16T14:32:22;6.10;;;2.80;;
77322;SDS011;66384;51.052;9.850;2023-07-16T14:34:54;4.20;;;2.80;;
77322;SDS011;66384;51.052;9.850;2023-07-16T14:37:26;4.40;;;2.90;;
77322;SDS011;66384;51.052;9.850;2023-07-16T14:39:57;5.20;;;2.90;;
77322;SDS011;66384;51.052;9.850;2023-07-16T14:42:29;4.00;;;3.10;;
77322;SDS011;66384;51.052;9.850;2023-07-16T14:45:00;4.10;;;3.00;;
77322;SDS011;66384;51.052;9.850;2023-07-16T14:47:33;4.40;;;3.20;;
77322;SDS011;66384;51.052;9.850;2023-07-16T14:50:06;4.30;;;3.50;;
77322;SDS011;66384;51.052;9.850;2023-07-16T14:52:39;4.30;;;3.10;;
77322;SDS011;66384;51.052;9.850;2023-07-16T14:55:11;4.70;;;3.10;;
77322;SDS011;66384;51.052;9.850;2023-07-16T14:57:44;4.70;;;2.60;;
77322;SDS011;66384;51.052;9.850;2023-07-16T15:00:16;4.00;;;3.10;;
77322;SDS011;66384;51.052;9.850;2023-07-16T15:02:48;4.40;;;3.10;;
77322;SDS011;66384;51.052;9.850;2023-07-16T15:05:20;3.80;;;2.80;;
77322;SDS011;66384;51.052;9.850;2023-07-16T15:07:52;5.30;;;2.70;;
77322;SDS011;66384;51.052;9.850;2023-07-16T15:10:23;6.40;;;3.40;;
77322;SDS011;66384;51.052;9.850;2023-07-16T15:12:55;6.40;;;2.90;;
77322;SDS011;66384;51.052;9.850;2023-07-16T15:15:26;4.60;;;2.80;;
77322;SDS011;66384;51.052;9.850;2023-07-16T15:17:58;5.60;;;3.10;;
77322;SDS011;66384;51.052;9.850;2023-07-16T15:20:30;5.30;;;3.00;;